TimePDT,TemperatureF,Dew PointF,Humidity,Sea Level PressureIn,VisibilityMPH,Wind Direction,Wind SpeedMPH,Gust SpeedMPH,PrecipitationIn,Events,Conditions,WindDirDegrees,DateUTC
12:56 AM,30.0,21.9,72,30.11,10.0,WNW,11.5,-,N/A,,Clear,300,2013-03-21 07:56:00
1:56 AM,30.0,18.0,61,30.11,10.0,WNW,16.1,-,N/A,,Clear,290,2013-03-21 08:56:00
2:56 AM,28.9,15.1,56,30.13,10.0,West,16.1,-,N/A,,Partly Cloudy,270,2013-03-21 09:56:00
3:56 AM,30.0,16.0,56,30.12,10.0,West,17.3,26.5,N/A,,Clear,260,2013-03-21 10:56:00
4:56 AM,28.9,15.1,56,30.15,10.0,Calm,Calm,-,N/A,,Partly Cloudy,0,2013-03-21 11:56:00
5:56 AM,28.9,17.1,61,30.15,10.0,WNW,8.1,-,N/A,,Mostly Cloudy,290,2013-03-21 12:56:00
6:56 AM,27.0,16.0,63,30.18,10.0,SSE,6.9,-,N/A,,Overcast,150,2013-03-21 13:56:00
7:56 AM,28.0,18.0,66,30.19,10.0,SSE,6.9,-,N/A,,Overcast,160,2013-03-21 14:56:00
8:56 AM,33.1,19.0,56,30.19,10.0,SW,5.8,-,N/A,,Overcast,220,2013-03-21 15:56:00
9:56 AM,37.0,19.0,48,30.19,10.0,SSW,6.9,-,N/A,,Overcast,200,2013-03-21 16:56:00
10:56 AM,37.0,18.0,46,30.19,10.0,West,4.6,-,N/A,,Overcast,260,2013-03-21 17:56:00
11:56 AM,41.0,19.9,43,30.18,10.0,WNW,24.2,29.9,N/A,,Mostly Cloudy,290,2013-03-21 18:56:00
12:56 PM,43.0,19.0,38,30.18,10.0,West,19.6,29.9,N/A,,Mostly Cloudy,280,2013-03-21 19:56:00
1:56 PM,42.1,18.0,38,30.18,10.0,West,24.2,31.1,N/A,,Partly Cloudy,280,2013-03-21 20:56:00
2:56 PM,39.9,18.0,41,30.17,10.0,WNW,12.7,25.3,N/A,,Mostly Cloudy,290,2013-03-21 21:56:00
3:56 PM,41.0,21.9,47,30.15,10.0,WNW,13.8,25.3,N/A,,Partly Cloudy,300,2013-03-21 22:56:00
4:56 PM,41.0,21.0,45,30.15,10.0,WNW,16.1,27.6,N/A,,Clear,300,2013-03-21 23:56:00
5:56 PM,39.0,21.0,49,30.16,10.0,WNW,12.7,-,N/A,,Partly Cloudy,290,2013-03-22 00:56:00
6:56 PM,35.1,21.9,59,30.18,10.0,NW,13.8,-,N/A,,Scattered Clouds,310,2013-03-22 01:56:00
7:56 PM,33.1,21.0,61,30.18,10.0,WNW,13.8,19.6,N/A,,Clear,290,2013-03-22 02:56:00
8:56 PM,33.1,21.0,61,30.20,10.0,WNW,15.0,-,N/A,,Overcast,300,2013-03-22 03:56:00
9:56 PM,30.9,21.0,67,30.20,10.0,WNW,12.7,-,N/A,,Mostly Cloudy,290,2013-03-22 04:56:00
10:56 PM,32.0,19.9,61,30.21,10.0,WNW,13.8,-,N/A,,Overcast,290,2013-03-22 05:56:00
11:56 PM,28.9,19.0,67,30.20,10.0,West,10.4,-,N/A,,Partly Cloudy,280,2013-03-22 06:56:00